Time;durP1;ratioP1;P1;durP2;ratioP2;P2;SDS_P1;SDS_P2;PMS_P1;PMS_P2;Temp;Humidity;BMP_temperature;BMP_pressure;BME280_temperature;BME280_humidity;BME280_pressure;Samples;Min_cycle;Max_cycle;Signal;HPM_P1;HPM_P2
2023/01/08 00:02:16;;;;;;;1.52;1.52;;;5.30;99.90;;;;;;5028552;28;20026;-74
2023/01/08 00:04:42;;;;;;;1.98;1.98;;;5.30;99.90;;;;;;5033259;28;20025;-74
2023/01/08 00:07:07;;;;;;;1.55;1.55;;;5.30;99.90;;;;;;5033204;28;20144;-74
2023/01/08 00:09:33;;;;;;;3.00;2.80;;;5.40;99.90;;;;;;5033344;28;20053;-73
2023/01/08 00:11:59;;;;;;;1.67;1.67;;;5.40;99.90;;;;;;5015549;28;20376;-73
2023/01/08 00:14:24;;;;;;;4.30;4.00;;;5.30;99.90;;;;;;5032789;28;20034;-74
2023/01/08 00:16:50;;;;;;;2.25;2.08;;;5.30;99.90;;;;;;5015182;28;20021;-72
2023/01/08 00:19:16;;;;;;;1.83;1.83;;;5.30;99.90;;;;;;5032485;28;20100;-74
2023/01/08 00:21:41;;;;;;;1.70;1.70;;;5.30;99.90;;;;;;5033230;28;20057;-73
2023/01/08 00:24:07;;;;;;;2.10;2.08;;;5.30;99.90;;;;;;5015305;28;20087;-73
2023/01/08 00:26:33;;;;;;;2.20;2.10;;;5.30;99.90;;;;;;5033041;28;20454;-71
2023/01/08 00:28:58;;;;;;;1.35;1.35;;;5.30;99.90;;;;;;5032816;28;20098;-74
2023/01/08 00:31:24;;;;;;;1.90;1.90;;;5.20;99.90;;;;;;5033271;28;20112;-73
2023/01/08 00:33:49;;;;;;;1.65;1.65;;;5.20;99.90;;;;;;5032884;28;20018;-73
2023/01/08 00:36:16;;;;;;;4.63;3.47;;;5.20;99.90;;;;;;5033968;28;20032;-73
2023/01/08 00:38:43;;;;;;;2.55;2.45;;;5.20;99.90;;;;;;5033518;28;20383;-72
2023/01/08 00:41:09;;;;;;;1.80;1.80;;;5.20;99.90;;;;;;5033295;28;20021;-71
2023/01/08 00:43:35;;;;;;;1.65;1.65;;;5.20;99.90;;;;;;5014837;28;20017;-72
2023/01/08 00:46:01;;;;;;;1.77;1.77;;;5.20;99.90;;;;;;5032490;28;20026;-72
2023/01/08 00:48:26;;;;;;;3.80;2.60;;;5.10;99.90;;;;;;5032188;28;20048;-72
2023/01/08 00:50:52;;;;;;;1.90;1.90;;;5.10;99.90;;;;;;5032302;28;20048;-72
2023/01/08 00:53:19;;;;;;;4.13;3.83;;;5.10;99.90;;;;;;5032079;28;20026;-72
2023/01/08 00:55:45;;;;;;;1.80;1.80;;;5.10;99.90;;;;;;5014509;28;20026;-72
2023/01/08 00:58:11;;;;;;;2.00;2.00;;;5.10;99.90;;;;;;5031978;28;20368;-71
2023/01/08 01:00:37;;;;;;;1.60;1.60;;;5.10;99.90;;;;;;5032227;28;20034;-72
2023/01/08 01:03:02;;;;;;;1.42;1.42;;;5.10;99.90;;;;;;5014358;28;20547;-72
2023/01/08 01:05:28;;;;;;;1.42;1.42;;;5.10;99.90;;;;;;5031922;28;20025;-72
2023/01/08 01:07:55;;;;;;;1.63;1.63;;;5.20;99.90;;;;;;5031832;28;20026;-71
2023/01/08 01:10:21;;;;;;;1.50;1.50;;;5.10;99.90;;;;;;5032064;28;20087;-72
2023/01/08 01:12:47;;;;;;;2.00;1.90;;;5.20;99.90;;;;;;5031905;28;20037;-72
2023/01/08 01:15:14;;;;;;;2.38;2.28;;;5.30;99.90;;;;;;5031785;28;20574;-72
2023/01/08 01:17:42;;;;;;;2.50;2.40;;;5.40;99.90;;;;;;5013978;28;20028;-71
2023/01/08 01:20:10;;;;;;;2.50;2.40;;;5.40;99.90;;;;;;5031859;28;20140;-72
2023/01/08 01:22:36;;;;;;;2.78;2.58;;;5.40;99.90;;;;;;5031663;28;20057;-72
2023/01/08 01:25:03;;;;;;;1.55;1.55;;;5.50;99.90;;;;;;5031731;28;20120;-72
2023/01/08 01:27:29;;;;;;;1.40;1.40;;;5.50;99.90;;;;;;5031547;28;20045;-72
2023/01/08 01:29:54;;;;;;;2.53;1.95;;;5.60;99.90;;;;;;5031699;28;20025;-71
2023/01/08 01:32:20;;;;;;;1.35;1.35;;;5.60;99.90;;;;;;5013928;28;20040;-72
2023/01/08 01:34:45;;;;;;;1.60;1.60;;;5.60;99.90;;;;;;5031478;28;20061;-73
2023/01/08 01:37:12;;;;;;;1.25;1.25;;;5.60;99.90;;;;;;5031531;28;20026;-73
2023/01/08 01:39:38;;;;;;;6.40;5.85;;;5.60;99.90;;;;;;5013990;28;20022;-72
2023/01/08 01:42:04;;;;;;;2.25;2.05;;;5.70;99.90;;;;;;5031739;28;20018;-72
2023/01/08 01:44:43;;;;;;;1.08;1.08;;;5.70;99.90;;;;;;5031629;28;20100;-72
2023/01/08 01:47:31;;;;;;;1.90;1.90;;;5.80;99.90;;;;;;5031774;28;20105;-74
2023/01/08 01:50:16;;;;;;;1.40;1.40;;;5.70;99.90;;;;;;5032108;28;20053;-72
2023/01/08 01:52:56;;;;;;;1.88;1.77;;;5.80;99.90;;;;;;5013906;28;20029;-71
2023/01/08 01:55:22;;;;;;;1.38;1.38;;;5.80;99.90;;;;;;5013961;28;20033;-71
2023/01/08 01:57:52;;;;;;;1.63;1.63;;;5.80;99.90;;;;;;5031728;28;20034;-71
2023/01/08 02:00:18;;;;;;;1.55;1.55;;;5.80;99.90;;;;;;5012459;28;20105;-71
2023/01/08 02:02:44;;;;;;;2.70;2.42;;;5.90;99.90;;;;;;5026366;28;20107;-71
2023/01/08 02:05:10;;;;;;;1.73;1.63;;;5.90;99.90;;;;;;5031929;28;20504;-71
2023/01/08 02:07:54;;;;;;;1.55;1.52;;;5.90;99.90;;;;;;5013563;28;20045;-71
2023/01/08 02:10:43;;;;;;;1.85;1.75;;;5.90;99.90;;;;;;5031475;28;20030;-71
2023/01/08 02:13:24;;;;;;;1.00;1.00;;;5.90;99.90;;;;;;4990538;28;20442;-72
2023/01/08 02:16:01;;;;;;;1.20;1.20;;;6.00;99.90;;;;;;5013673;28;20533;-72
2023/01/08 02:18:52;;;;;;;1.40;1.40;;;6.00;99.90;;;;;;5031099;28;20506;-72
2023/01/08 02:21:39;;;;;;;2.60;2.42;;;6.00;99.90;;;;;;5017470;28;20060;-72
2023/01/08 02:24:30;;;;;;;1.50;1.50;;;6.00;99.90;;;;;;5013576;28;20022;-72
2023/01/08 02:27:00;;;;;;;1.30;1.30;;;6.00;99.90;;;;;;5031163;28;20030;-74
2023/01/08 02:29:27;;;;;;;1.20;1.20;;;6.00;99.90;;;;;;5018300;28;20036;-74
2023/01/08 02:31:53;;;;;;;1.45;1.45;;;6.00;99.90;;;;;;5031320;28;20014;-73
2023/01/08 02:34:19;;;;;;;2.25;2.15;;;6.00;99.90;;;;;;5013469;28;20025;-75
2023/01/08 02:36:50;;;;;;;1.20;1.20;;;6.00;99.90;;;;;;5031163;28;20029;-75
2023/01/08 02:39:24;;;;;;;1.20;1.20;;;6.00;99.90;;;;;;5031083;28;20029;-74
2023/01/08 02:41:52;;;;;;;1.30;1.23;;;6.00;99.90;;;;;;5031374;28;20610;-74
2023/01/08 02:44:35;;;;;;;1.30;1.30;;;6.00;99.90;;;;;;5034711;28;20108;-74
2023/01/08 02:47:05;;;;;;;1.23;1.23;;;6.10;99.90;;;;;;5016817;28;20164;-75
2023/01/08 02:49:33;;;;;;;2.13;2.03;;;6.10;99.90;;;;;;5034665;28;20116;-75
2023/01/08 02:52:01;;;;;;;1.20;1.20;;;6.10;99.90;;;;;;5016799;28;20040;-73
2023/01/08 02:54:31;;;;;;;1.10;1.10;;;6.10;99.90;;;;;;5034205;28;20037;-74
2023/01/08 02:57:14;;;;;;;1.17;1.17;;;6.20;99.90;;;;;;5034272;28;20032;-73
2023/01/08 02:59:42;;;;;;;1.20;1.20;;;6.20;99.90;;;;;;5034448;28;20017;-73
2023/01/08 03:02:08;;;;;;;0.90;0.90;;;6.20;99.90;;;;;;5034461;28;20475;-73
2023/01/08 03:04:40;;;;;;;1.40;1.30;;;6.20;99.90;;;;;;5034360;28;20660;-73
2023/01/08 03:07:05;;;;;;;2.35;2.25;;;6.20;99.90;;;;;;5034161;28;20049;-72
2023/01/08 03:09:31;;;;;;;1.10;1.10;;;6.20;99.90;;;;;;5034057;28;20049;-72
2023/01/08 03:12:03;;;;;;;5.18;2.15;;;6.20;99.90;;;;;;5034302;28;20022;-72
2023/01/08 03:14:36;;;;;;;1.15;1.15;;;6.20;99.90;;;;;;5016160;28;20108;-72
2023/01/08 03:17:11;;;;;;;1.90;1.80;;;6.20;99.90;;;;;;5033949;28;20030;-73
2023/01/08 03:19:41;;;;;;;1.33;1.33;;;6.30;99.90;;;;;;5020951;28;20036;-73
2023/01/08 03:22:12;;;;;;;4.88;2.90;;;6.30;99.90;;;;;;5034080;28;20028;-72
2023/01/08 03:24:39;;;;;;;1.30;1.30;;;6.20;99.90;;;;;;5033941;28;20037;-72
2023/01/08 03:27:09;;;;;;;1.13;1.13;;;6.30;99.90;;;;;;5033651;28;20040;-74
2023/01/08 03:29:37;;;;;;;0.85;0.85;;;6.30;99.90;;;;;;5033904;28;20034;-75
2023/01/08 03:32:07;;;;;;;1.85;1.75;;;6.30;99.90;;;;;;5033912;28;20029;-74
2023/01/08 03:34:36;;;;;;;1.10;1.10;;;6.20;99.90;;;;;;5015960;28;20491;-73
2023/01/08 03:37:06;;;;;;;1.08;1.08;;;6.20;99.90;;;;;;5033528;28;20062;-73
2023/01/08 03:39:46;;;;;;;1.40;1.40;;;6.20;99.90;;;;;;5033740;28;20053;-74
2023/01/08 03:42:16;;;;;;;1.30;1.30;;;6.20;99.90;;;;;;5015862;28;20029;-73
2023/01/08 03:44:41;;;;;;;0.85;0.85;;;6.20;99.90;;;;;;5033551;28;20133;-73
2023/01/08 03:47:09;;;;;;;0.70;0.70;;;6.20;99.90;;;;;;5002551;28;20538;-73
2023/01/08 03:49:36;;;;;;;0.73;0.73;;;6.20;99.90;;;;;;5015789;28;20021;-74
2023/01/08 03:52:02;;;;;;;2.45;2.25;;;6.10;99.90;;;;;;5033563;28;20586;-74
2023/01/08 03:54:31;;;;;;;1.98;1.17;;;6.30;99.90;;;;;;5033179;28;20077;-74
2023/01/08 03:56:56;;;;;;;0.75;0.75;;;6.30;99.90;;;;;;5033210;28;20029;-74
2023/01/08 03:59:22;;;;;;;0.77;0.77;;;6.40;99.90;;;;;;5033433;28;20071;-76
2023/01/08 04:01:48;;;;;;;0.68;0.68;;;6.40;99.90;;;;;;5033321;28;20100;-76
2023/01/08 04:04:13;;;;;;;2.50;2.35;;;6.40;99.90;;;;;;5015462;28;20025;-75
2023/01/08 04:06:39;;;;;;;0.70;0.70;;;6.40;99.90;;;;;;5015298;28;20029;-74
2023/01/08 04:09:05;;;;;;;0.70;0.70;;;6.40;99.90;;;;;;5032968;28;20033;-73
2023/01/08 04:11:31;;;;;;;0.70;0.70;;;6.40;99.90;;;;;;5033056;28;20135;-73
2023/01/08 04:13:57;;;;;;;0.73;0.73;;;6.40;99.90;;;;;;5033015;28;20112;-73
2023/01/08 04:16:23;;;;;;;0.90;0.90;;;6.40;99.90;;;;;;5032817;28;20101;-73
2023/01/08 04:18:48;;;;;;;0.70;0.70;;;6.40;99.90;;;;;;5032778;28;20054;-74
2023/01/08 04:21:14;;;;;;;0.60;0.60;;;6.40;99.90;;;;;;5032753;28;20032;-75
2023/01/08 04:23:39;;;;;;;1.60;1.60;;;6.40;99.90;;;;;;5015025;28;20116;-74
2023/01/08 04:26:06;;;;;;;0.70;0.70;;;6.40;99.90;;;;;;5014993;28;20071;-73
2023/01/08 04:28:32;;;;;;;0.85;0.85;;;6.40;99.90;;;;;;5032563;28;20479;-74
2023/01/08 04:30:58;;;;;;;0.70;0.70;;;6.50;99.90;;;;;;5032695;28;20033;-74
2023/01/08 04:33:24;;;;;;;8.77;2.38;;;6.40;99.90;;;;;;5032613;28;20029;-73
2023/01/08 04:35:50;;;;;;;0.75;0.75;;;6.40;99.90;;;;;;5032533;28;20021;-74
2023/01/08 04:38:15;;;;;;;0.60;0.60;;;6.50;99.90;;;;;;5014736;28;20026;-73
2023/01/08 04:40:41;;;;;;;0.70;0.70;;;6.50;99.90;;;;;;5014778;28;20021;-73
2023/01/08 04:43:07;;;;;;;1.70;1.60;;;6.50;99.90;;;;;;5032420;28;20108;-72
2023/01/08 04:45:32;;;;;;;1.48;1.13;;;6.50;99.90;;;;;;5032350;28;20037;-73
2023/01/08 04:47:58;;;;;;;0.70;0.70;;;6.40;99.90;;;;;;5014536;28;20036;-73
2023/01/08 04:50:25;;;;;;;1.00;1.00;;;6.40;99.90;;;;;;5014752;28;20025;-72
2023/01/08 04:52:51;;;;;;;1.17;1.08;;;6.40;99.90;;;;;;5032380;28;20021;-73
2023/01/08 04:55:16;;;;;;;0.60;0.60;;;6.40;99.90;;;;;;5014366;28;20504;-73
2023/01/08 04:57:42;;;;;;;0.70;0.70;;;6.30;99.90;;;;;;5031944;28;20052;-73
2023/01/08 05:00:08;;;;;;;1.02;1.02;;;6.20;99.90;;;;;;5032120;28;20026;-73
2023/01/08 05:02:34;;;;;;;0.60;0.60;;;6.20;99.90;;;;;;5032055;28;20021;-73
2023/01/08 05:04:59;;;;;;;0.60;0.60;;;6.10;99.90;;;;;;5031581;28;20172;-73
2023/01/08 05:07:25;;;;;;;0.65;0.65;;;6.10;99.90;;;;;;5031933;28;20159;-73
2023/01/08 05:09:51;;;;;;;0.70;0.70;;;6.10;99.90;;;;;;5032005;28;20037;-73
2023/01/08 05:12:17;;;;;;;0.70;0.70;;;6.10;99.90;;;;;;5032052;28;20037;-73
2023/01/08 05:14:42;;;;;;;0.65;0.65;;;6.00;99.90;;;;;;5031728;28;20079;-73
2023/01/08 05:17:08;;;;;;;0.60;0.60;;;6.00;99.90;;;;;;5031768;28;20104;-74
2023/01/08 05:19:33;;;;;;;0.73;0.73;;;5.90;99.90;;;;;;5031799;28;20101;-73
2023/01/08 05:21:59;;;;;;;0.63;0.63;;;6.00;99.90;;;;;;5031877;28;20053;-73
2023/01/08 05:24:24;;;;;;;0.70;0.70;;;5.90;99.90;;;;;;5031799;28;20096;-73
2023/01/08 05:26:50;;;;;;;0.70;0.70;;;5.80;99.90;;;;;;5014005;28;20116;-73
2023/01/08 05:29:16;;;;;;;0.75;0.75;;;5.90;99.90;;;;;;5014191;28;20049;-73
2023/01/08 05:31:42;;;;;;;0.55;0.55;;;5.80;99.90;;;;;;5014270;28;20021;-73
2023/01/08 05:34:07;;;;;;;0.50;0.50;;;5.80;99.90;;;;;;5031681;28;20441;-73
2023/01/08 05:36:33;;;;;;;1.17;1.17;;;5.70;99.90;;;;;;5031632;28;20032;-72
2023/01/08 05:38:58;;;;;;;0.60;0.60;;;5.70;99.90;;;;;;5031527;28;20028;-73
2023/01/08 05:41:24;;;;;;;1.20;1.15;;;5.80;99.90;;;;;;5014085;28;20018;-73
2023/01/08 05:43:49;;;;;;;0.60;0.60;;;5.80;99.90;;;;;;5031568;28;20021;-73
2023/01/08 05:46:15;;;;;;;1.38;1.20;;;5.80;99.90;;;;;;5031689;28;20033;-72
2023/01/08 05:48:40;;;;;;;1.60;1.50;;;5.80;99.90;;;;;;5013752;28;20491;-73
2023/01/08 05:51:06;;;;;;;0.50;0.50;;;5.90;99.90;;;;;;5031652;28;20030;-73
2023/01/08 05:53:32;;;;;;;0.55;0.55;;;5.90;99.90;;;;;;5031359;28;20033;-72
2023/01/08 05:56:02;;;;;;;0.60;0.60;;;5.90;99.90;;;;;;5031973;28;20464;-72
2023/01/08 05:58:28;;;;;;;0.70;0.70;;;5.90;99.90;;;;;;5031144;28;20036;-72
2023/01/08 06:00:59;;;;;;;0.98;0.98;;;5.90;99.90;;;;;;5031600;28;20410;-73
2023/01/08 06:03:24;;;;;;;0.50;0.50;;;5.90;99.90;;;;;;5000674;28;20105;-73
2023/01/08 06:05:50;;;;;;;0.98;0.98;;;5.90;99.90;;;;;;5014136;28;20450;-73
2023/01/08 06:08:15;;;;;;;0.63;0.63;;;5.90;99.90;;;;;;5031307;28;20108;-73
2023/01/08 06:10:41;;;;;;;0.60;0.60;;;5.90;99.90;;;;;;5031439;28;20029;-72
2023/01/08 06:13:08;;;;;;;1.30;1.30;;;5.90;99.90;;;;;;5031404;28;20499;-73
2023/01/08 06:15:34;;;;;;;0.60;0.60;;;5.80;99.90;;;;;;5031264;28;20088;-73
2023/01/08 06:18:03;;;;;;;0.70;0.70;;;5.80;99.90;;;;;;5033631;28;20030;-73
2023/01/08 06:20:28;;;;;;;1.42;1.33;;;5.80;99.90;;;;;;5035197;28;20021;-73
2023/01/08 06:22:54;;;;;;;0.52;0.52;;;5.80;99.90;;;;;;5035214;28;20029;-73
2023/01/08 06:25:20;;;;;;;1.40;1.00;;;5.80;99.90;;;;;;5035059;28;20034;-73
2023/01/08 06:27:50;;;;;;;0.60;0.60;;;5.80;99.90;;;;;;5034982;28;20434;-73
2023/01/08 06:30:16;;;;;;;0.82;0.82;;;5.70;99.90;;;;;;5035148;28;20419;-73
2023/01/08 06:32:41;;;;;;;1.13;1.05;;;5.80;99.90;;;;;;5034760;28;20079;-72
2023/01/08 06:35:07;;;;;;;0.50;0.50;;;5.80;99.90;;;;;;5034863;28;20056;-73
2023/01/08 06:37:33;;;;;;;0.50;0.50;;;5.80;99.90;;;;;;5034699;28;20048;-73
2023/01/08 06:39:58;;;;;;;0.60;0.60;;;5.80;99.90;;;;;;5034946;28;20398;-72
2023/01/08 06:42:24;;;;;;;0.68;0.68;;;5.90;99.90;;;;;;5017088;28;20022;-72
2023/01/08 06:44:50;;;;;;;1.17;1.17;;;5.90;99.90;;;;;;5034582;28;20033;-73
2023/01/08 06:47:15;;;;;;;0.60;0.60;;;6.00;99.90;;;;;;5016905;28;20029;-73
2023/01/08 06:49:41;;;;;;;0.70;0.70;;;5.90;99.90;;;;;;5034596;28;20032;-73
2023/01/08 06:52:06;;;;;;;0.70;0.70;;;5.90;99.90;;;;;;5034634;28;20111;-73
2023/01/08 06:54:32;;;;;;;0.60;0.60;;;6.00;99.90;;;;;;5034282;28;20060;-73
2023/01/08 06:56:57;;;;;;;0.70;0.70;;;6.00;99.90;;;;;;5016742;28;20053;-73
2023/01/08 06:59:23;;;;;;;0.80;0.80;;;6.00;99.90;;;;;;5034447;28;20026;-73
2023/01/08 07:01:49;;;;;;;0.60;0.60;;;6.00;99.90;;;;;;5034511;28;20071;-73
2023/01/08 07:04:15;;;;;;;2.35;1.77;;;6.00;99.90;;;;;;5034342;28;20434;-73
2023/01/08 07:06:41;;;;;;;0.70;0.70;;;6.00;99.90;;;;;;5016362;28;20029;-72
2023/01/08 07:09:06;;;;;;;1.25;1.23;;;6.00;99.90;;;;;;5034210;28;20032;-73
2023/01/08 07:11:32;;;;;;;0.50;0.50;;;6.00;99.90;;;;;;5034163;28;20033;-73
2023/01/08 07:13:58;;;;;;;1.05;1.05;;;6.00;99.90;;;;;;5034141;28;20037;-73
2023/01/08 07:16:23;;;;;;;0.60;0.60;;;6.00;99.90;;;;;;5034819;28;20502;-73
2023/01/08 07:18:49;;;;;;;0.98;0.98;;;6.00;99.90;;;;;;5017942;28;20028;-73
2023/01/08 07:21:15;;;;;;;1.95;1.65;;;5.90;99.90;;;;;;5036009;28;20036;-73
2023/01/08 07:23:40;;;;;;;1.17;1.17;;;6.00;99.90;;;;;;5034970;28;20029;-73
2023/01/08 07:26:07;;;;;;;0.60;0.60;;;5.90;99.90;;;;;;5034327;28;20490;-73
2023/01/08 07:28:32;;;;;;;0.60;0.60;;;6.00;99.90;;;;;;5033752;28;20021;-72
2023/01/08 07:31:02;;;;;;;0.77;0.77;;;5.90;99.90;;;;;;5034171;28;20391;-73
2023/01/08 07:33:28;;;;;;;1.30;1.30;;;5.80;99.90;;;;;;5034020;28;20025;-72
2023/01/08 07:35:55;;;;;;;0.70;0.70;;;5.80;99.90;;;;;;5016355;28;20030;-72
2023/01/08 07:38:21;;;;;;;2.33;1.77;;;5.80;99.90;;;;;;5015010;28;20549;-73
2023/01/08 07:40:47;;;;;;;1.13;1.10;;;5.80;99.90;;;;;;5033668;28;20052;-73
2023/01/08 07:43:12;;;;;;;3.00;2.08;;;5.80;99.90;;;;;;5033682;28;20463;-72
2023/01/08 07:45:38;;;;;;;0.50;0.50;;;5.80;99.90;;;;;;5016085;28;20030;-73
2023/01/08 07:48:04;;;;;;;0.50;0.50;;;5.80;99.90;;;;;;5034942;28;20570;-73
2023/01/08 07:50:31;;;;;;;1.80;1.70;;;5.80;99.90;;;;;;5034828;28;20030;-74
2023/01/08 07:52:58;;;;;;;0.50;0.50;;;5.70;99.90;;;;;;5034770;28;20026;-74
2023/01/08 07:55:24;;;;;;;2.47;1.63;;;5.70;99.90;;;;;;5034064;28;20021;-73
2023/01/08 07:57:49;;;;;;;1.00;1.00;;;5.70;99.90;;;;;;5033759;28;20597;-73
2023/01/08 08:00:15;;;;;;;1.75;1.65;;;5.70;99.90;;;;;;5034314;28;20036;-73
2023/01/08 08:02:41;;;;;;;0.70;0.70;;;5.70;99.90;;;;;;5034437;28;20021;-73
2023/01/08 08:05:07;;;;;;;1.42;1.33;;;5.60;99.90;;;;;;5034271;28;20044;-74
2023/01/08 08:07:32;;;;;;;0.85;0.85;;;5.60;99.90;;;;;;5033974;28;20034;-74
2023/01/08 08:09:58;;;;;;;0.70;0.70;;;5.60;99.90;;;;;;5034217;28;20091;-74
2023/01/08 08:12:23;;;;;;;3.05;2.85;;;5.60;99.90;;;;;;5033474;28;20054;-73
2023/01/08 08:14:49;;;;;;;2.90;2.80;;;5.60;99.90;;;;;;5015494;28;20052;-74
2023/01/08 08:17:14;;;;;;;0.70;0.70;;;5.60;99.90;;;;;;5032895;28;20415;-73
2023/01/08 08:19:42;;;;;;;2.05;2.00;;;5.60;99.90;;;;;;5033443;28;20017;-74
2023/01/08 08:22:08;;;;;;;0.98;0.95;;;5.60;99.90;;;;;;5033202;28;20029;-74
2023/01/08 08:24:34;;;;;;;0.60;0.60;;;5.60;99.90;;;;;;5033183;28;20033;-73
2023/01/08 08:27:00;;;;;;;2.03;1.83;;;5.60;99.90;;;;;;5032589;28;20087;-74
2023/01/08 08:29:25;;;;;;;0.60;0.60;;;5.60;99.90;;;;;;5033008;28;20025;-74
2023/01/08 08:31:51;;;;;;;1.45;1.00;;;5.60;99.90;;;;;;5015280;28;20021;-73
2023/01/08 08:34:16;;;;;;;1.48;1.45;;;5.60;99.90;;;;;;5033114;28;20025;-74
2023/01/08 08:36:42;;;;;;;0.60;0.60;;;5.60;99.90;;;;;;5032716;28;20029;-73
2023/01/08 08:39:07;;;;;;;3.33;1.80;;;5.70;99.90;;;;;;5032162;28;20033;-74
2023/01/08 08:41:33;;;;;;;0.60;0.60;;;5.70;99.90;;;;;;5031988;28;20032;-73
2023/01/08 08:43:58;;;;;;;1.92;1.83;;;5.70;99.90;;;;;;5032628;28;20026;-74
2023/01/08 08:46:24;;;;;;;0.60;0.60;;;5.70;99.90;;;;;;5032894;28;20030;-74
2023/01/08 08:48:50;;;;;;;0.60;0.60;;;5.60;99.90;;;;;;5032312;28;20037;-73
2023/01/08 08:51:15;;;;;;;0.63;0.63;;;5.70;99.90;;;;;;5032845;28;20105;-74
2023/01/08 08:53:41;;;;;;;0.90;0.85;;;5.70;99.90;;;;;;5032837;28;20103;-73
2023/01/08 08:56:06;;;;;;;1.45;1.38;;;5.60;99.90;;;;;;5032726;28;20094;-74
2023/01/08 08:58:32;;;;;;;1.65;1.55;;;5.60;99.90;;;;;;5014461;28;20112;-74
2023/01/08 09:01:02;;;;;;;1.40;1.30;;;5.60;99.90;;;;;;5014754;28;20022;-74
2023/01/08 09:03:28;;;;;;;0.70;0.70;;;5.60;99.90;;;;;;5002418;28;20041;-74
2023/01/08 09:05:54;;;;;;;1.20;1.20;;;5.60;99.90;;;;;;5032413;28;20029;-73
2023/01/08 09:08:20;;;;;;;0.70;0.70;;;5.60;99.90;;;;;;5032500;28;20391;-73
2023/01/08 09:10:45;;;;;;;1.25;1.25;;;5.70;99.90;;;;;;5014905;28;20513;-73
2023/01/08 09:13:11;;;;;;;0.55;0.55;;;5.60;99.90;;;;;;5032405;28;20040;-73
2023/01/08 09:15:37;;;;;;;0.50;0.50;;;5.70;99.90;;;;;;5032397;28;20026;-73
2023/01/08 09:18:03;;;;;;;0.65;0.65;;;5.80;99.90;;;;;;5019313;28;20449;-74
2023/01/08 09:20:29;;;;;;;0.80;0.80;;;5.80;99.90;;;;;;5032443;28;20501;-73
2023/01/08 09:22:58;;;;;;;0.60;0.60;;;5.80;99.90;;;;;;5032350;28;20033;-74
2023/01/08 09:25:24;;;;;;;0.65;0.65;;;5.80;99.90;;;;;;5014290;28;20025;-74
2023/01/08 09:28:01;;;;;;;1.25;1.15;;;5.90;99.90;;;;;;5032307;28;20029;-73
2023/01/08 09:30:27;;;;;;;0.77;0.77;;;5.90;99.90;;;;;;5032523;28;20033;-74
2023/01/08 09:32:58;;;;;;;1.88;1.77;;;6.00;99.90;;;;;;5032485;28;20040;-73
2023/01/08 09:35:24;;;;;;;0.70;0.70;;;6.10;99.90;;;;;;5029663;28;20030;-73
2023/01/08 09:37:51;;;;;;;0.80;0.80;;;6.30;99.90;;;;;;5030234;28;20017;-73
2023/01/08 09:40:17;;;;;;;1.17;1.17;;;6.30;99.90;;;;;;5031486;28;20087;-74
2023/01/08 09:42:52;;;;;;;1.15;1.15;;;6.40;99.90;;;;;;5030668;28;20025;-74
2023/01/08 09:45:25;;;;;;;2.53;1.90;;;6.60;99.90;;;;;;5029784;28;20561;-73
2023/01/08 09:47:51;;;;;;;0.70;0.70;;;6.70;99.90;;;;;;5030947;28;20041;-73
2023/01/08 09:50:17;;;;;;;0.60;0.60;;;6.80;99.90;;;;;;5031461;28;20551;-73
2023/01/08 09:52:42;;;;;;;0.65;0.65;;;6.90;99.90;;;;;;5016722;28;20025;-73
2023/01/08 09:55:15;;;;;;;0.90;0.90;;;6.90;99.90;;;;;;5017374;28;20115;-73
2023/01/08 09:57:42;;;;;;;0.80;0.80;;;6.90;99.90;;;;;;5036228;28;20025;-73
2023/01/08 10:00:24;;;;;;;0.80;0.80;;;6.90;99.90;;;;;;5017480;28;20582;-73
2023/01/08 10:02:52;;;;;;;2.22;2.13;;;6.90;99.90;;;;;;5017556;28;20029;-73
2023/01/08 10:05:18;;;;;;;1.10;1.10;;;6.90;99.90;;;;;;5017338;28;20040;-73
2023/01/08 10:07:45;;;;;;;1.00;1.00;;;6.90;99.90;;;;;;5035413;28;20033;-73
2023/01/08 10:10:26;;;;;;;1.38;1.38;;;6.90;99.90;;;;;;5017847;28;20029;-73
2023/01/08 10:12:53;;;;;;;0.80;0.80;;;6.90;99.90;;;;;;5036007;28;20025;-73
2023/01/08 10:15:20;;;;;;;19.08;9.05;;;6.90;99.90;;;;;;5035869;28;20022;-74
2023/01/08 10:18:05;;;;;;;0.70;0.70;;;7.00;99.90;;;;;;5035709;28;20044;-74
2023/01/08 10:20:32;;;;;;;2.00;1.85;;;6.90;99.90;;;;;;5011695;28;20120;-73
2023/01/08 10:23:12;;;;;;;1.45;1.35;;;6.90;99.90;;;;;;5035591;28;20025;-73
2023/01/08 10:25:55;;;;;;;1.13;1.13;;;7.10;99.90;;;;;;5035592;28;20034;-73
2023/01/08 10:28:24;;;;;;;1.42;1.42;;;6.80;99.90;;;;;;5034279;28;20033;-73
2023/01/08 10:30:51;;;;;;;0.88;0.88;;;6.90;99.90;;;;;;5035854;28;20116;-73
2023/01/08 10:33:22;;;;;;;0.80;0.80;;;6.80;99.90;;;;;;5017355;28;20075;-73
2023/01/08 10:35:59;;;;;;;0.85;0.85;;;6.90;99.90;;;;;;5021611;28;20027;-73
2023/01/08 10:38:32;;;;;;;1.00;1.00;;;6.80;99.90;;;;;;5016947;28;20021;-73
2023/01/08 10:41:00;;;;;;;0.98;0.98;;;6.80;99.90;;;;;;5017235;28;20029;-73
2023/01/08 10:43:33;;;;;;;2.00;1.90;;;6.80;99.90;;;;;;5017118;28;20022;-73
2023/01/08 10:46:02;;;;;;;2.00;1.90;;;6.80;99.90;;;;;;5035085;28;20387;-73
2023/01/08 10:48:53;;;;;;;0.90;0.90;;;6.90;99.90;;;;;;5034365;28;20043;-73
2023/01/08 10:51:24;;;;;;;1.92;1.83;;;6.80;99.90;;;;;;5005857;28;20048;-73
2023/01/08 10:53:52;;;;;;;1.13;1.13;;;6.90;99.90;;;;;;5033868;28;20037;-73
2023/01/08 10:56:24;;;;;;;1.45;1.45;;;6.90;99.90;;;;;;5032827;28;20029;-73
2023/01/08 10:58:50;;;;;;;1.60;1.50;;;6.90;99.90;;;;;;5032405;28;20053;-73
2023/01/08 11:01:27;;;;;;;1.10;1.10;;;6.90;99.90;;;;;;5032644;28;20032;-73
2023/01/08 11:03:57;;;;;;;2.10;2.00;;;6.90;99.90;;;;;;5015609;28;20021;-73
2023/01/08 11:06:26;;;;;;;1.10;1.10;;;6.80;99.90;;;;;;5016140;28;20029;-73
2023/01/08 11:08:56;;;;;;;1.25;1.25;;;6.90;99.90;;;;;;5016590;28;20434;-73
2023/01/08 11:11:23;;;;;;;1.27;1.27;;;6.90;99.90;;;;;;5034521;28;20030;-73
2023/01/08 11:14:33;;;;;;;1.10;1.10;;;6.90;99.90;;;;;;5034428;28;20044;-73
2023/01/08 11:17:03;;;;;;;1.25;1.25;;;6.90;99.90;;;;;;5025722;28;20120;-73
2023/01/08 11:19:31;;;;;;;1.33;1.33;;;6.90;99.90;;;;;;5016528;28;20395;-73
2023/01/08 11:21:58;;;;;;;1.50;1.50;;;6.80;99.90;;;;;;5033414;28;20037;-73
2023/01/08 11:24:33;;;;;;;1.20;1.20;;;6.80;99.90;;;;;;5033751;28;20017;-74
2023/01/08 11:27:15;;;;;;;2.15;2.05;;;6.80;99.90;;;;;;5033804;28;20532;-74
2023/01/08 11:29:46;;;;;;;1.80;1.70;;;6.80;99.90;;;;;;5023012;28;20021;-73
2023/01/08 11:32:22;;;;;;;1.80;1.77;;;6.80;99.90;;;;;;5033905;28;20438;-73
2023/01/08 11:34:51;;;;;;;2.40;2.30;;;6.80;99.90;;;;;;5033806;28;20073;-73
2023/01/08 11:37:21;;;;;;;1.50;1.50;;;6.80;99.90;;;;;;5033560;28;20018;-73
2023/01/08 11:39:47;;;;;;;2.30;2.10;;;6.70;99.90;;;;;;5033735;28;20102;-74
2023/01/08 11:42:31;;;;;;;1.88;1.85;;;6.80;99.90;;;;;;5015896;28;20420;-73
2023/01/08 11:45:02;;;;;;;2.05;2.05;;;6.70;99.90;;;;;;5033610;28;20060;-74
2023/01/08 11:48:04;;;;;;;1.52;1.52;;;6.70;99.90;;;;;;5015738;28;20087;-73
2023/01/08 11:50:53;;;;;;;2.10;2.00;;;6.70;99.90;;;;;;5035645;28;20029;-73
2023/01/08 11:53:23;;;;;;;1.60;1.60;;;6.70;99.90;;;;;;5033055;28;20033;-74
2023/01/08 11:56:17;;;;;;;1.83;1.83;;;6.70;99.90;;;;;;5033473;28;20032;-73
2023/01/08 11:58:52;;;;;;;1.80;1.80;;;6.70;99.90;;;;;;5020984;28;20025;-74
2023/01/08 12:01:27;;;;;;;1.88;1.88;;;6.70;99.90;;;;;;5033907;28;20045;-74
2023/01/08 12:04:31;;;;;;;4.22;3.78;;;6.70;99.90;;;;;;5033454;28;20026;-73
2023/01/08 12:07:20;;;;;;;13.40;11.27;;;6.70;99.90;;;;;;5015318;28;20119;-73
2023/01/08 12:09:51;;;;;;;3.30;3.20;;;6.60;99.90;;;;;;5033234;28;20025;-74
2023/01/08 12:12:44;;;;;;;3.15;3.05;;;6.70;99.90;;;;;;5033287;28;20033;-74
2023/01/08 12:15:39;;;;;;;2.40;2.30;;;6.70;99.90;;;;;;5021710;28;20030;-73
2023/01/08 12:18:26;;;;;;;2.75;2.65;;;6.80;99.90;;;;;;5032785;28;20022;-73
2023/01/08 12:21:13;;;;;;;3.20;3.10;;;6.70;99.90;;;;;;5032910;28;20075;-74
2023/01/08 12:23:53;;;;;;;2.67;2.58;;;6.70;99.90;;;;;;5032879;28;20033;-73
2023/01/08 12:26:48;;;;;;;2.83;2.72;;;6.70;99.90;;;;;;5020960;28;20029;-74
2023/01/08 12:29:18;;;;;;;2.90;2.80;;;6.70;99.90;;;;;;5015224;28;20025;-74
2023/01/08 12:32:01;;;;;;;2.88;2.78;;;6.70;99.90;;;;;;5015024;28;20025;-73
2023/01/08 12:34:51;;;;;;;3.40;3.30;;;6.70;99.90;;;;;;5003655;28;20133;-73
2023/01/08 12:37:26;;;;;;;3.00;2.90;;;6.80;99.90;;;;;;5032585;28;20053;-74
2023/01/08 12:40:24;;;;;;;2.80;2.70;;;6.80;99.90;;;;;;5032750;28;20535;-73
2023/01/08 12:42:50;;;;;;;3.38;3.28;;;6.90;99.90;;;;;;5012857;28;20026;-73
2023/01/08 12:45:27;;;;;;;3.40;3.30;;;6.90;99.90;;;;;;5011860;28;20067;-73
2023/01/08 12:48:06;;;;;;;4.20;4.07;;;6.90;99.90;;;;;;5032365;28;20025;-74
2023/01/08 12:50:50;;;;;;;4.93;4.53;;;6.90;99.90;;;;;;5001358;28;20036;-74
2023/01/08 12:53:46;;;;;;;4.13;4.03;;;6.90;99.90;;;;;;5014638;28;20567;-73
2023/01/08 12:56:15;;;;;;;4.13;4.03;;;6.90;99.90;;;;;;5025448;28;20392;-74
2023/01/08 12:59:08;;;;;;;4.32;4.22;;;6.90;99.90;;;;;;5026950;28;20032;-73
2023/01/08 13:02:17;;;;;;;4.53;4.32;;;6.90;99.90;;;;;;5043875;28;20022;-73
2023/01/08 13:04:45;;;;;;;4.53;4.43;;;6.90;99.90;;;;;;5032048;28;20020;-73
2023/01/08 13:07:25;;;;;;;4.47;4.38;;;6.90;99.90;;;;;;5032014;28;20060;-73
2023/01/08 13:09:56;;;;;;;7.50;7.10;;;6.90;99.90;;;;;;5032674;28;20052;-73
2023/01/08 13:12:48;;;;;;;5.10;4.90;;;6.90;99.90;;;;;;5032233;28;20029;-73